Time,TemperatureF,DewpointF,PressureIn,WindDirection,WindDirectionDegrees,WindSpeedMPH,WindSpeedGustMPH,Humidity,HourlyPrecipIn,Conditions,Clouds,dailyrainin,SoftwareType,DateUTC
2013-05-26 00:03:00,75.2,68.2,30.16,ESE,119,5.0,11.0,79,0.00,,,0.00,meteohub,2013-05-26 05:03:00,
2013-05-26 00:08:00,75.2,68.5,30.16,ESE,121,8.0,10.0,80,0.00,,,0.00,meteohub,2013-05-26 05:08:00,
2013-05-26 00:13:00,75.2,68.2,30.16,ESE,121,12.0,12.0,79,0.00,,,0.00,meteohub,2013-05-26 05:13:00,
2013-05-26 00:18:00,75.4,68.4,30.16,SE,126,5.0,14.0,79,0.00,,,0.00,meteohub,2013-05-26 05:18:00,
2013-05-26 00:23:00,75.6,68.2,30.15,SE,130,5.0,14.0,78,0.00,,,0.00,meteohub,2013-05-26 05:23:00,
2013-05-26 00:28:00,75.6,68.2,30.15,SE,132,7.0,14.0,78,0.00,,,0.00,meteohub,2013-05-26 05:28:00,
2013-05-26 00:33:00,75.6,68.5,30.15,SE,126,6.0,12.0,79,0.00,,,0.00,meteohub,2013-05-26 05:33:00,
2013-05-26 00:38:00,75.6,68.5,30.15,SSE,151,5.0,12.0,79,0.00,,,0.00,meteohub,2013-05-26 05:38:00,
2013-05-26 00:43:00,75.4,68.4,30.15,SE,128,7.0,12.0,79,0.00,,,0.00,meteohub,2013-05-26 05:43:00,
2013-05-26 00:48:00,75.0,68.0,30.15,SE,127,8.0,10.0,79,0.00,,,0.00,meteohub,2013-05-26 05:48:00,
2013-05-26 00:53:00,75.0,68.0,30.15,SE,130,6.0,10.0,79,0.00,,,0.00,meteohub,2013-05-26 05:53:00,
2013-05-26 00:58:00,74.8,68.2,30.15,SE,125,3.0,10.0,80,0.00,,,0.00,meteohub,2013-05-26 05:58:00,
2013-05-26 01:03:00,74.7,68.0,30.15,ESE,121,8.0,10.0,80,0.00,,,0.00,meteohub,2013-05-26 06:03:00,
2013-05-26 01:08:00,74.3,68.0,30.15,ESE,120,5.0,10.0,81,0.00,,,0.00,meteohub,2013-05-26 06:08:00,
2013-05-26 01:13:00,73.9,67.8,30.15,ESE,120,7.0,9.0,81,0.00,,,0.00,meteohub,2013-05-26 06:13:00,
2013-05-26 01:18:00,73.8,67.6,30.15,ESE,118,8.0,9.0,81,0.00,,,0.00,meteohub,2013-05-26 06:18:00,
2013-05-26 01:23:00,73.8,67.3,30.14,ESE,115,5.0,9.0,80,0.00,,,0.00,meteohub,2013-05-26 06:23:00,
2013-05-26 01:28:00,73.8,67.3,30.14,ESE,115,2.0,9.0,80,0.00,,,0.00,meteohub,2013-05-26 06:28:00,
2013-05-26 01:33:00,73.8,67.6,30.14,SE,125,6.0,9.0,81,0.00,,,0.00,meteohub,2013-05-26 06:33:00,
2013-05-26 01:38:00,73.8,67.6,30.14,ESE,123,9.0,9.0,81,0.00,,,0.00,meteohub,2013-05-26 06:38:00,
2013-05-26 01:43:00,73.8,67.3,30.14,ESE,120,9.0,10.0,80,0.00,,,0.00,meteohub,2013-05-26 06:43:00,
2013-05-26 01:48:00,73.6,67.1,30.14,ESE,120,9.0,10.0,80,0.00,,,0.00,meteohub,2013-05-26 06:48:00,
2013-05-26 01:53:00,73.6,67.1,30.14,ESE,121,9.0,10.0,80,0.00,,,0.00,meteohub,2013-05-26 06:53:00,
2013-05-26 01:58:00,73.6,67.1,30.14,SE,124,8.0,11.0,80,0.00,,,0.00,meteohub,2013-05-26 06:58:00,
2013-05-26 02:03:00,73.6,67.1,30.13,ESE,123,10.0,11.0,80,0.00,,,0.00,meteohub,2013-05-26 07:03:00,
2013-05-26 02:08:00,73.6,67.1,30.13,SE,126,6.0,11.0,80,0.00,,,0.00,meteohub,2013-05-26 07:08:00,
2013-05-26 02:13:00,73.6,67.1,30.13,SE,128,8.0,13.0,80,0.00,,,0.00,meteohub,2013-05-26 07:13:00,
2013-05-26 02:18:00,73.4,66.9,30.13,ESE,121,11.0,13.0,80,0.00,,,0.00,meteohub,2013-05-26 07:18:00,
2013-05-26 02:23:00,73.6,66.7,30.13,ESE,121,8.0,13.0,79,0.00,,,0.00,meteohub,2013-05-26 07:23:00,
2013-05-26 02:28:00,73.6,66.7,30.13,SE,126,6.0,13.0,79,0.00,,,0.00,meteohub,2013-05-26 07:28:00,
2013-05-26 02:33:00,73.8,66.9,30.13,SE,125,8.0,11.0,79,0.00,,,0.00,meteohub,2013-05-26 07:33:00,
2013-05-26 02:38:00,73.8,66.9,30.13,SE,130,6.0,11.0,79,0.00,,,0.00,meteohub,2013-05-26 07:38:00,
2013-05-26 02:43:00,73.9,67.1,30.13,SE,129,5.0,11.0,79,0.00,,,0.00,meteohub,2013-05-26 07:43:00,
2013-05-26 02:48:00,73.8,66.9,30.14,SE,128,4.0,11.0,79,0.00,,,0.00,meteohub,2013-05-26 07:48:00,
2013-05-26 02:53:00,73.6,67.1,30.14,SE,128,2.0,8.0,80,0.00,,,0.00,meteohub,2013-05-26 07:53:00,
2013-05-26 02:58:00,73.8,66.9,30.14,SE,128,3.0,7.0,79,0.00,,,0.00,meteohub,2013-05-26 07:58:00,
2013-05-26 03:03:00,73.8,66.9,30.14,SE,128,2.0,6.0,79,0.00,,,0.00,meteohub,2013-05-26 08:03:00,
2013-05-26 03:08:00,73.6,66.7,30.14,SE,128,1.0,5.0,79,0.00,,,0.00,meteohub,2013-05-26 08:08:00,
2013-05-26 03:13:00,73.9,65.8,30.14,SE,128,2.0,5.0,76,0.00,,,0.00,meteohub,2013-05-26 08:13:00,
2013-05-26 03:18:00,74.1,66.0,30.14,SE,128,1.0,5.0,76,0.00,,,0.00,meteohub,2013-05-26 08:18:00,
2013-05-26 03:23:00,74.1,66.0,30.14,SE,130,0.0,5.0,76,0.00,,,0.00,meteohub,2013-05-26 08:23:00,
2013-05-26 03:28:00,73.6,66.4,30.14,SE,130,1.0,5.0,78,0.00,,,0.00,meteohub,2013-05-26 08:28:00,
2013-05-26 03:33:00,73.0,66.2,30.14,SE,130,1.0,5.0,79,0.00,,,0.00,meteohub,2013-05-26 08:33:00,
2013-05-26 03:38:00,72.9,66.4,30.14,SE,130,2.0,5.0,80,0.00,,,0.00,meteohub,2013-05-26 08:38:00,
2013-05-26 03:43:00,72.9,66.4,30.14,SE,130,2.0,3.0,80,0.00,,,0.00,meteohub,2013-05-26 08:43:00,
2013-05-26 03:48:00,72.7,66.2,30.14,SE,130,1.0,4.0,80,0.00,,,0.00,meteohub,2013-05-26 08:48:00,
2013-05-26 03:53:00,72.3,66.2,30.14,SE,130,3.0,4.0,81,0.00,,,0.00,meteohub,2013-05-26 08:53:00,
2013-05-26 03:58:00,72.5,66.0,30.14,SE,130,2.0,5.0,80,0.00,,,0.00,meteohub,2013-05-26 08:58:00,
2013-05-26 04:03:00,72.1,66.0,30.14,SE,130,1.0,5.0,81,0.00,,,0.00,meteohub,2013-05-26 09:03:00,
2013-05-26 04:08:00,72.1,66.4,30.14,SE,130,2.0,5.0,82,0.00,,,0.00,meteohub,2013-05-26 09:08:00,
2013-05-26 04:13:00,72.0,66.2,30.14,SE,130,2.0,5.0,82,0.00,,,0.00,meteohub,2013-05-26 09:13:00,
2013-05-26 04:18:00,72.0,66.2,30.14,SE,130,2.0,4.0,82,0.00,,,0.00,meteohub,2013-05-26 09:18:00,
2013-05-26 04:23:00,72.3,65.8,30.14,SE,130,7.0,7.0,80,0.00,,,0.00,meteohub,2013-05-26 09:23:00,
2013-05-26 04:28:00,72.9,66.0,30.14,SE,130,6.0,9.0,79,0.00,,,0.00,meteohub,2013-05-26 09:28:00,
2013-05-26 04:33:00,73.0,65.8,30.14,SE,130,5.0,9.0,78,0.00,,,0.00,meteohub,2013-05-26 09:33:00,
2013-05-26 04:38:00,73.0,66.2,30.15,SE,130,4.0,9.0,79,0.00,,,0.00,meteohub,2013-05-26 09:38:00,
2013-05-26 04:43:00,72.7,66.2,30.15,SE,130,2.0,7.0,80,0.00,,,0.00,meteohub,2013-05-26 09:43:00,
2013-05-26 04:48:00,72.0,66.2,30.15,SE,130,0.0,7.0,82,0.00,,,0.00,meteohub,2013-05-26 09:48:00,
2013-05-26 04:53:00,71.6,66.6,30.15,SE,130,2.0,5.0,84,0.00,,,0.00,meteohub,2013-05-26 09:53:00,
2013-05-26 04:58:00,71.8,66.4,30.15,SE,130,0.0,3.0,83,0.00,,,0.00,meteohub,2013-05-26 09:58:00,
2013-05-26 05:03:00,72.0,66.6,30.15,SE,130,0.0,3.0,83,0.00,,,0.00,meteohub,2013-05-26 10:03:00,
2013-05-26 05:08:00,72.0,66.6,30.15,SE,130,0.0,3.0,83,0.00,,,0.00,meteohub,2013-05-26 10:08:00,
2013-05-26 05:13:00,72.0,66.9,30.15,SE,130,0.0,3.0,84,0.00,,,0.00,meteohub,2013-05-26 10:13:00,
2013-05-26 05:18:00,72.0,66.2,30.15,SE,130,3.0,3.0,82,0.00,,,0.00,meteohub,2013-05-26 10:18:00,
2013-05-26 05:23:00,72.1,67.1,30.15,SE,130,0.0,5.0,84,0.00,,,0.00,meteohub,2013-05-26 10:23:00,
2013-05-26 05:28:00,71.2,67.1,30.16,SE,130,1.0,5.0,87,0.00,,,0.00,meteohub,2013-05-26 10:28:00,
2013-05-26 05:33:00,70.9,67.1,30.16,SE,130,0.0,5.0,88,0.00,,,0.00,meteohub,2013-05-26 10:33:00,
2013-05-26 05:38:00,70.9,67.5,30.16,SE,130,0.0,1.0,89,0.00,,,0.00,meteohub,2013-05-26 10:38:00,
2013-05-26 05:43:00,70.7,67.6,30.15,SE,130,3.0,3.0,90,0.00,,,0.00,meteohub,2013-05-26 10:43:00,
2013-05-26 05:48:00,70.5,67.5,30.15,SE,130,1.0,4.0,90,0.00,,,0.00,meteohub,2013-05-26 10:48:00,
2013-05-26 05:53:00,70.5,67.5,30.15,SE,130,3.0,4.0,90,0.00,,,0.00,meteohub,2013-05-26 10:53:00,
2013-05-26 05:58:00,70.5,67.5,30.15,SE,130,3.0,4.0,90,0.00,,,0.00,meteohub,2013-05-26 10:58:00,
2013-05-26 06:03:00,70.5,67.5,30.15,SE,130,0.0,4.0,90,0.00,,,0.00,meteohub,2013-05-26 11:03:00,
2013-05-26 06:08:00,70.7,67.6,30.15,SE,130,2.0,4.0,90,0.00,,,0.00,meteohub,2013-05-26 11:08:00,
2013-05-26 06:13:00,70.9,67.5,30.15,SE,130,3.0,4.0,89,0.00,,,0.00,meteohub,2013-05-26 11:13:00,
2013-05-26 06:19:00,70.9,67.5,30.15,SE,130,1.0,5.0,89,0.00,,,0.00,meteohub,2013-05-26 11:19:00,
2013-05-26 06:24:00,70.9,67.5,30.16,SE,130,3.0,5.0,89,0.00,,,0.00,meteohub,2013-05-26 11:24:00,
2013-05-26 06:29:00,70.5,67.5,30.16,SE,130,2.0,5.0,90,0.00,,,0.00,meteohub,2013-05-26 11:29:00,
2013-05-26 06:34:00,70.5,67.8,30.16,SE,130,1.0,4.0,91,0.00,,,0.00,meteohub,2013-05-26 11:34:00,
2013-05-26 06:39:00,70.5,67.8,30.16,SE,130,3.0,4.0,91,0.00,,,0.00,meteohub,2013-05-26 11:39:00,
2013-05-26 06:44:00,70.5,68.0,30.16,SE,130,2.0,4.0,92,0.00,,,0.00,meteohub,2013-05-26 11:44:00,
2013-05-26 06:49:00,70.3,67.8,30.16,SE,130,2.0,4.0,92,0.00,,,0.00,meteohub,2013-05-26 11:49:00,
2013-05-26 06:54:00,70.2,67.6,30.17,SE,130,3.0,4.0,92,0.00,,,0.00,meteohub,2013-05-26 11:54:00,
2013-05-26 06:59:00,70.2,67.6,30.17,SE,130,3.0,4.0,92,0.00,,,0.00,meteohub,2013-05-26 11:59:00,
2013-05-26 07:04:00,70.3,67.8,30.17,SE,130,5.0,5.0,92,0.00,,,0.00,meteohub,2013-05-26 12:04:00,
2013-05-26 07:09:00,70.3,67.8,30.17,SE,130,2.0,6.0,92,0.00,,,0.00,meteohub,2013-05-26 12:09:00,
2013-05-26 07:14:00,70.3,67.8,30.17,SE,130,4.0,6.0,92,0.00,,,0.00,meteohub,2013-05-26 12:14:00,
2013-05-26 07:19:00,70.3,67.8,30.17,East,86,3.0,6.0,92,0.00,,,0.00,meteohub,2013-05-26 12:19:00,
2013-05-26 07:24:00,70.3,67.8,30.17,ENE,61,3.0,7.0,92,0.00,,,0.00,meteohub,2013-05-26 12:24:00,
2013-05-26 07:29:00,70.3,68.2,30.17,ENE,61,3.0,7.0,93,0.00,,,0.00,meteohub,2013-05-26 12:29:00,
2013-05-26 07:34:00,70.5,68.4,30.17,ENE,61,3.0,7.0,93,0.00,,,0.00,meteohub,2013-05-26 12:34:00,
2013-05-26 07:39:00,70.5,68.0,30.17,ENE,61,3.0,7.0,92,0.00,,,0.00,meteohub,2013-05-26 12:39:00,
2013-05-26 07:44:00,70.7,68.2,30.17,ENE,69,7.0,7.0,92,0.00,,,0.00,meteohub,2013-05-26 12:44:00,
2013-05-26 07:49:00,70.7,68.2,30.17,ENE,71,1.0,7.0,92,0.00,,,0.00,meteohub,2013-05-26 12:49:00,
2013-05-26 07:54:00,70.9,68.4,30.17,ENE,72,3.0,7.0,92,0.00,,,0.00,meteohub,2013-05-26 12:54:00,
2013-05-26 07:59:00,71.1,68.4,30.17,ENE,73,4.0,7.0,91,0.00,,,0.00,meteohub,2013-05-26 12:59:00,
2013-05-26 08:04:00,71.1,68.4,30.17,ENE,68,5.0,7.0,91,0.00,,,0.00,meteohub,2013-05-26 13:04:00,
2013-05-26 08:09:00,71.2,68.5,30.17,ENE,73,2.0,7.0,91,0.00,,,0.00,meteohub,2013-05-26 13:09:00,
2013-05-26 08:14:00,71.8,68.7,30.18,ENE,72,1.0,7.0,90,0.00,,,0.00,meteohub,2013-05-26 13:14:00,
2013-05-26 08:19:00,72.1,68.7,30.17,East,80,5.0,7.0,89,0.00,,,0.00,meteohub,2013-05-26 13:19:00,
2013-05-26 08:24:00,72.7,68.5,30.17,East,82,7.0,8.0,87,0.00,,,0.00,meteohub,2013-05-26 13:24:00,
2013-05-26 08:29:00,73.6,69.1,30.18,ENE,78,4.0,9.0,86,0.00,,,0.00,meteohub,2013-05-26 13:29:00,
2013-05-26 08:34:00,74.1,68.9,30.17,East,84,7.0,9.0,84,0.00,,,0.00,meteohub,2013-05-26 13:34:00,
2013-05-26 08:39:00,74.5,69.3,30.18,East,85,2.0,9.0,84,0.00,,,0.00,meteohub,2013-05-26 13:39:00,
2013-05-26 08:44:00,74.5,69.3,30.18,East,86,6.0,8.0,84,0.00,,,0.00,meteohub,2013-05-26 13:44:00,
2013-05-26 08:49:00,74.7,69.8,30.18,East,86,6.0,8.0,85,0.00,,,0.00,meteohub,2013-05-26 13:49:00,
2013-05-26 08:54:00,74.7,69.8,30.18,East,84,5.0,8.0,85,0.00,,,0.00,meteohub,2013-05-26 13:54:00,
2013-05-26 08:59:00,74.7,69.8,30.17,East,83,5.0,8.0,85,0.00,,,0.00,meteohub,2013-05-26 13:59:00,
2013-05-26 09:04:00,74.8,70.0,30.17,East,90,5.0,7.0,85,0.00,,,0.00,meteohub,2013-05-26 14:04:00,
2013-05-26 09:09:00,75.6,70.3,30.17,ESE,117,8.0,9.0,84,0.00,,,0.00,meteohub,2013-05-26 14:09:00,
2013-05-26 09:14:00,75.7,70.2,30.18,East,99,3.0,10.0,83,0.00,,,0.00,meteohub,2013-05-26 14:14:00,
2013-05-26 09:19:00,75.9,70.3,30.18,ESE,108,3.0,10.0,83,0.00,,,0.00,meteohub,2013-05-26 14:19:00,
2013-05-26 09:24:00,76.3,70.3,30.18,East,101,6.0,10.0,82,0.00,,,0.00,meteohub,2013-05-26 14:24:00,
2013-05-26 09:29:00,76.6,71.1,30.18,ESE,109,4.0,10.0,83,0.00,,,0.00,meteohub,2013-05-26 14:29:00,
2013-05-26 09:34:00,77.0,71.1,30.18,ESE,108,3.0,10.0,82,0.00,,,0.00,meteohub,2013-05-26 14:34:00,
2013-05-26 09:39:00,77.2,71.2,30.18,East,87,5.0,10.0,82,0.00,,,0.00,meteohub,2013-05-26 14:39:00,
2013-05-26 09:44:00,77.5,71.2,30.18,East,84,3.0,9.0,81,0.00,,,0.00,meteohub,2013-05-26 14:44:00,
2013-05-26 09:49:00,78.1,71.4,30.18,ESE,103,3.0,8.0,80,0.00,,,0.00,meteohub,2013-05-26 14:49:00,
2013-05-26 09:54:00,77.7,70.7,30.18,East,96,7.0,8.0,79,0.00,,,0.00,meteohub,2013-05-26 14:54:00,
2013-05-26 09:59:00,78.3,71.6,30.18,East,97,6.0,9.0,80,0.00,,,0.00,meteohub,2013-05-26 14:59:00,
2013-05-26 10:04:00,78.3,70.5,30.19,ESE,113,7.0,11.0,77,0.00,,,0.00,meteohub,2013-05-26 15:04:00,
2013-05-26 10:09:00,78.4,70.7,30.19,ESE,105,7.0,11.0,77,0.00,,,0.00,meteohub,2013-05-26 15:09:00,
2013-05-26 10:14:00,78.4,70.7,30.19,ESE,117,5.0,11.0,77,0.00,,,0.00,meteohub,2013-05-26 15:14:00,
2013-05-26 10:19:00,79.0,70.7,30.19,ESE,107,7.0,11.0,76,0.00,,,0.00,meteohub,2013-05-26 15:19:00,
2013-05-26 10:24:00,78.6,70.9,30.19,SE,131,5.0,11.0,77,0.00,,,0.00,meteohub,2013-05-26 15:24:00,
2013-05-26 10:29:00,78.4,70.7,30.19,ESE,123,9.0,11.0,77,0.00,,,0.00,meteohub,2013-05-26 15:29:00,
2013-05-26 10:34:00,78.3,70.9,30.19,ESE,109,5.0,14.0,78,0.00,,,0.00,meteohub,2013-05-26 15:34:00,
2013-05-26 10:39:00,78.4,70.7,30.19,ESE,117,12.0,14.0,77,0.00,,,0.00,meteohub,2013-05-26 15:39:00,
2013-05-26 10:44:00,78.6,71.2,30.19,SE,125,9.0,14.0,78,0.00,,,0.00,meteohub,2013-05-26 15:44:00,
2013-05-26 10:49:00,78.6,70.9,30.19,ESE,107,10.0,12.0,77,0.00,,,0.00,meteohub,2013-05-26 15:49:00,
2013-05-26 10:54:00,79.2,71.2,30.19,SE,134,8.0,12.0,77,0.00,,,0.00,meteohub,2013-05-26 15:54:00,
2013-05-26 10:59:00,79.2,70.9,30.19,ESE,121,9.0,11.0,76,0.00,,,0.00,meteohub,2013-05-26 15:59:00,
2013-05-26 11:04:00,79.2,71.2,30.19,ESE,119,7.0,11.0,77,0.00,,,0.00,meteohub,2013-05-26 16:04:00,
2013-05-26 11:09:00,79.2,71.2,30.19,SE,130,3.0,12.0,77,0.00,,,0.00,meteohub,2013-05-26 16:09:00,
2013-05-26 11:14:00,79.5,71.2,30.19,ESE,118,8.0,12.0,76,0.00,,,0.00,meteohub,2013-05-26 16:14:00,
2013-05-26 11:19:00,79.5,71.2,30.19,SE,139,6.0,12.0,76,0.00,,,0.00,meteohub,2013-05-26 16:19:00,
2013-05-26 11:24:00,79.9,71.2,30.19,ESE,115,3.0,11.0,75,0.00,,,0.00,meteohub,2013-05-26 16:24:00,
2013-05-26 11:29:00,80.2,71.2,30.19,ESE,122,9.0,11.0,74,0.00,,,0.00,meteohub,2013-05-26 16:29:00,
2013-05-26 11:34:00,80.8,71.8,30.19,SSE,153,4.0,12.0,74,0.00,,,0.00,meteohub,2013-05-26 16:34:00,
2013-05-26 11:39:00,80.6,70.7,30.18,ESE,111,3.0,12.0,72,0.00,,,0.00,meteohub,2013-05-26 16:39:00,
2013-05-26 11:44:00,80.8,70.5,30.18,ESE,109,3.0,12.0,71,0.00,,,0.00,meteohub,2013-05-26 16:44:00,
2013-05-26 11:49:00,81.0,71.1,30.18,South,185,5.0,12.0,72,0.00,,,0.00,meteohub,2013-05-26 16:49:00,
2013-05-26 11:54:00,81.3,70.5,30.18,ESE,117,9.0,12.0,70,0.00,,,0.00,meteohub,2013-05-26 16:54:00,
2013-05-26 11:59:00,81.1,70.9,30.18,ESE,121,7.0,14.0,71,0.00,,,0.00,meteohub,2013-05-26 16:59:00,
2013-05-26 12:04:00,81.3,70.5,30.17,East,87,8.0,14.0,70,0.00,,,0.00,meteohub,2013-05-26 17:04:00,
2013-05-26 12:09:00,81.1,70.9,30.18,SE,133,8.0,14.0,71,0.00,,,0.00,meteohub,2013-05-26 17:09:00,
2013-05-26 12:14:00,80.8,70.5,30.18,ESE,105,4.0,12.0,71,0.00,,,0.00,meteohub,2013-05-26 17:14:00,
2013-05-26 12:19:00,81.1,70.9,30.18,ESE,108,9.0,12.0,71,0.00,,,0.00,meteohub,2013-05-26 17:19:00,
2013-05-26 12:24:00,81.0,70.7,30.17,East,91,9.0,12.0,71,0.00,,,0.00,meteohub,2013-05-26 17:24:00,
2013-05-26 12:29:00,81.3,71.8,30.17,ESE,112,8.0,11.0,73,0.00,,,0.00,meteohub,2013-05-26 17:29:00,
2013-05-26 12:34:00,82.0,70.9,30.17,SE,135,5.0,11.0,69,0.00,,,0.00,meteohub,2013-05-26 17:34:00,
2013-05-26 12:39:00,81.9,70.3,30.17,ESE,113,2.0,11.0,68,0.00,,,0.00,meteohub,2013-05-26 17:39:00,
2013-05-26 12:44:00,81.5,70.3,30.17,ESE,104,3.0,11.0,69,0.00,,,0.00,meteohub,2013-05-26 17:44:00,
2013-05-26 12:49:00,81.7,69.6,30.17,ESE,105,4.0,11.0,67,0.00,,,0.00,meteohub,2013-05-26 17:49:00,
2013-05-26 12:54:00,81.3,69.8,30.17,ESE,111,2.0,10.0,68,0.00,,,0.00,meteohub,2013-05-26 17:54:00,
2013-05-26 12:59:00,81.7,70.2,30.17,ESE,118,2.0,11.0,68,0.00,,,0.00,meteohub,2013-05-26 17:59:00,
2013-05-26 13:04:00,81.7,69.6,30.17,East,80,6.0,11.0,67,0.00,,,0.00,meteohub,2013-05-26 18:04:00,
2013-05-26 13:09:00,82.2,70.5,30.17,East,94,5.0,11.0,68,0.00,,,0.00,meteohub,2013-05-26 18:09:00,
2013-05-26 13:14:00,82.0,69.6,30.17,East,82,7.0,10.0,66,0.00,,,0.00,meteohub,2013-05-26 18:14:00,
2013-05-26 13:19:00,82.2,69.8,30.17,East,84,5.0,10.0,66,0.00,,,0.00,meteohub,2013-05-26 18:19:00,
2013-05-26 13:24:00,82.8,69.8,30.17,ESE,112,9.0,10.0,65,0.00,,,0.00,meteohub,2013-05-26 18:24:00,
2013-05-26 13:29:00,82.8,69.8,30.17,ESE,113,5.0,11.0,65,0.00,,,0.00,meteohub,2013-05-26 18:29:00,
2013-05-26 13:34:00,82.2,68.9,30.17,East,84,7.0,11.0,64,0.00,,,0.00,meteohub,2013-05-26 18:34:00,
2013-05-26 13:39:00,82.8,69.8,30.16,ESE,102,5.0,13.0,65,0.00,,,0.00,meteohub,2013-05-26 18:39:00,
2013-05-26 13:44:00,82.6,69.1,30.16,ENE,73,7.0,13.0,64,0.00,,,0.00,meteohub,2013-05-26 18:44:00,
2013-05-26 13:49:00,82.9,70.0,30.16,ESE,121,7.0,13.0,65,0.00,,,0.00,meteohub,2013-05-26 18:49:00,
2013-05-26 13:54:00,82.6,68.7,30.16,East,91,5.0,10.0,63,0.00,,,0.00,meteohub,2013-05-26 18:54:00,
2013-05-26 13:59:00,82.9,69.4,30.16,ESE,113,7.0,10.0,64,0.00,,,0.00,meteohub,2013-05-26 18:59:00,
2013-05-26 14:04:00,82.9,70.0,30.15,ESE,111,8.0,11.0,65,0.00,,,0.00,meteohub,2013-05-26 19:04:00,
2013-05-26 14:09:00,82.9,69.1,30.15,ESE,119,3.0,11.0,63,0.00,,,0.00,meteohub,2013-05-26 19:09:00,
2013-05-26 14:14:00,82.9,69.4,30.15,ESE,113,5.0,11.0,64,0.00,,,0.00,meteohub,2013-05-26 19:14:00,
2013-05-26 14:19:00,82.6,68.2,30.15,ESE,117,8.0,11.0,62,0.00,,,0.00,meteohub,2013-05-26 19:19:00,
2013-05-26 14:24:00,82.6,68.7,30.15,East,85,5.0,11.0,63,0.00,,,0.00,meteohub,2013-05-26 19:24:00,
2013-05-26 14:29:00,82.6,68.7,30.15,East,92,6.0,9.0,63,0.00,,,0.00,meteohub,2013-05-26 19:29:00,
2013-05-26 14:34:00,82.8,68.9,30.14,East,92,5.0,9.0,63,0.00,,,0.00,meteohub,2013-05-26 19:34:00,
2013-05-26 14:39:00,83.1,68.7,30.15,ESE,111,5.0,9.0,62,0.00,,,0.00,meteohub,2013-05-26 19:39:00,
2013-05-26 14:44:00,84.2,69.3,30.15,SSE,156,3.0,10.0,61,0.00,,,0.00,meteohub,2013-05-26 19:44:00,
2013-05-26 14:49:00,84.0,68.2,30.15,ESE,114,5.0,10.0,59,0.00,,,0.00,meteohub,2013-05-26 19:49:00,
2013-05-26 14:54:00,83.1,69.3,30.14,ESE,111,2.0,10.0,63,0.00,,,0.00,meteohub,2013-05-26 19:54:00,
2013-05-26 14:59:00,83.5,68.5,30.14,ESE,110,8.0,8.0,61,0.00,,,0.00,meteohub,2013-05-26 19:59:00,
2013-05-26 15:04:00,82.9,68.2,30.14,ESE,121,3.0,11.0,61,0.00,,,0.00,meteohub,2013-05-26 20:04:00,
2013-05-26 15:09:00,82.8,68.4,30.14,East,98,6.0,11.0,62,0.00,,,0.00,meteohub,2013-05-26 20:09:00,
2013-05-26 15:14:00,82.8,68.9,30.14,East,87,6.0,11.0,63,0.00,,,0.00,meteohub,2013-05-26 20:14:00,
2013-05-26 15:19:00,82.8,68.9,30.14,East,80,6.0,10.0,63,0.00,,,0.00,meteohub,2013-05-26 20:19:00,
2013-05-26 15:24:00,82.9,68.5,30.14,East,101,7.0,10.0,62,0.00,,,0.00,meteohub,2013-05-26 20:24:00,
2013-05-26 15:29:00,82.9,69.1,30.13,ESE,103,8.0,8.0,63,0.00,,,0.00,meteohub,2013-05-26 20:29:00,
2013-05-26 15:34:00,82.8,68.4,30.13,ESE,107,4.0,9.0,62,0.00,,,0.00,meteohub,2013-05-26 20:34:00,
2013-05-26 15:39:00,82.6,68.7,30.13,East,91,5.0,9.0,63,0.00,,,0.00,meteohub,2013-05-26 20:39:00,
2013-05-26 15:44:00,82.6,68.7,30.13,East,86,5.0,9.0,63,0.00,,,0.00,meteohub,2013-05-26 20:44:00,
2013-05-26 15:49:00,82.8,69.3,30.13,ESE,106,7.0,8.0,64,0.00,,,0.00,meteohub,2013-05-26 20:49:00,
2013-05-26 15:54:00,82.6,69.6,30.13,East,84,7.0,9.0,65,0.00,,,0.00,meteohub,2013-05-26 20:54:00,
2013-05-26 15:59:00,82.2,70.2,30.13,ESE,105,7.0,11.0,67,0.00,,,0.00,meteohub,2013-05-26 20:59:00,
2013-05-26 16:04:00,82.2,70.2,30.13,ESE,102,10.0,13.0,67,0.00,,,0.00,meteohub,2013-05-26 21:04:00,
2013-05-26 16:09:00,82.2,70.5,30.13,ESE,111,4.0,13.0,68,0.00,,,0.00,meteohub,2013-05-26 21:09:00,
2013-05-26 16:14:00,82.2,70.2,30.13,ESE,103,10.0,14.0,67,0.00,,,0.00,meteohub,2013-05-26 21:14:00,
2013-05-26 16:19:00,81.9,70.3,30.12,ESE,105,11.0,15.0,68,0.00,,,0.00,meteohub,2013-05-26 21:19:00,
2013-05-26 16:24:00,82.0,70.9,30.12,East,92,10.0,15.0,69,0.00,,,0.00,meteohub,2013-05-26 21:24:00,
2013-05-26 16:29:00,82.2,70.5,30.12,East,96,9.0,15.0,68,0.00,,,0.00,meteohub,2013-05-26 21:29:00,
2013-05-26 16:34:00,81.9,70.7,30.12,East,92,10.0,15.0,69,0.00,,,0.00,meteohub,2013-05-26 21:34:00,
2013-05-26 16:39:00,81.7,70.9,30.12,East,91,10.0,15.0,70,0.00,,,0.00,meteohub,2013-05-26 21:39:00,
2013-05-26 16:44:00,81.7,70.5,30.12,East,93,6.0,15.0,69,0.00,,,0.00,meteohub,2013-05-26 21:44:00,
2013-05-26 16:50:00,81.7,69.6,30.12,East,92,14.0,15.0,67,0.00,,,0.00,meteohub,2013-05-26 21:50:00,
2013-05-26 16:55:00,81.7,69.6,30.12,East,94,8.0,16.0,67,0.00,,,0.00,meteohub,2013-05-26 21:55:00,
2013-05-26 17:00:00,81.9,69.8,30.12,East,93,8.0,16.0,67,0.00,,,0.00,meteohub,2013-05-26 22:00:00,
2013-05-26 17:05:00,81.9,69.8,30.12,East,88,8.0,16.0,67,0.00,,,0.00,meteohub,2013-05-26 22:05:00,
2013-05-26 17:10:00,81.9,69.8,30.12,East,86,6.0,15.0,67,0.00,,,0.00,meteohub,2013-05-26 22:10:00,
2013-05-26 17:15:00,81.9,70.3,30.12,East,93,7.0,15.0,68,0.00,,,0.00,meteohub,2013-05-26 22:15:00,
2013-05-26 17:20:00,82.4,70.0,30.12,East,94,7.0,14.0,66,0.00,,,0.00,meteohub,2013-05-26 22:20:00,
2013-05-26 17:25:00,81.9,70.3,30.12,ESE,105,4.0,14.0,68,0.00,,,0.00,meteohub,2013-05-26 22:25:00,
2013-05-26 17:30:00,81.9,70.3,30.12,SE,128,8.0,14.0,68,0.00,,,0.00,meteohub,2013-05-26 22:30:00,
2013-05-26 17:35:00,81.7,70.2,30.12,SE,135,10.0,14.0,68,0.00,,,0.00,meteohub,2013-05-26 22:35:00,
2013-05-26 17:40:00,81.7,70.2,30.12,ESE,119,7.0,11.0,68,0.00,,,0.00,meteohub,2013-05-26 22:40:00,
2013-05-26 17:45:00,81.1,70.3,30.12,South,182,1.0,12.0,70,0.00,,,0.00,meteohub,2013-05-26 22:45:00,
2013-05-26 17:50:00,81.0,70.2,30.12,SE,144,8.0,12.0,70,0.00,,,0.00,meteohub,2013-05-26 22:50:00,
2013-05-26 17:55:00,81.1,70.3,30.12,SE,126,5.0,12.0,70,0.00,,,0.00,meteohub,2013-05-26 22:55:00,
2013-05-26 18:00:00,80.8,70.5,30.12,SE,136,3.0,11.0,71,0.00,,,0.00,meteohub,2013-05-26 23:00:00,
2013-05-26 18:05:00,80.8,70.9,30.12,SSW,199,2.0,11.0,72,0.00,,,0.00,meteohub,2013-05-26 23:05:00,
2013-05-26 18:10:00,79.5,70.9,30.12,SSW,194,6.0,14.0,75,0.00,,,0.00,meteohub,2013-05-26 23:10:00,
2013-05-26 18:15:00,79.3,70.0,30.12,South,181,8.0,14.0,73,0.00,,,0.00,meteohub,2013-05-26 23:15:00,
2013-05-26 18:20:00,79.3,69.4,30.11,South,180,5.0,14.0,72,0.00,,,0.00,meteohub,2013-05-26 23:20:00,
2013-05-26 18:25:00,79.9,71.2,30.12,SSW,193,3.0,12.0,75,0.00,,,0.00,meteohub,2013-05-26 23:25:00,
2013-05-26 18:30:00,80.2,70.3,30.11,South,190,4.0,11.0,72,0.00,,,0.00,meteohub,2013-05-26 23:30:00,
2013-05-26 18:35:00,80.4,70.5,30.11,South,171,4.0,8.0,72,0.00,,,0.00,meteohub,2013-05-26 23:35:00,
2013-05-26 18:40:00,79.9,70.5,30.11,ESE,121,2.0,7.0,73,0.00,,,0.00,meteohub,2013-05-26 23:40:00,
2013-05-26 18:45:00,79.5,70.2,30.11,ESE,118,9.0,9.0,73,0.00,,,0.00,meteohub,2013-05-26 23:45:00,
2013-05-26 18:50:00,79.5,69.6,30.11,ESE,117,3.0,9.0,72,0.00,,,0.00,meteohub,2013-05-26 23:50:00,
2013-05-26 18:57:00,79.7,69.8,30.11,ESE,105,4.0,9.0,72,0.00,,,0.00,meteohub,2013-05-26 23:57:00,
2013-05-26 19:02:00,79.7,69.8,30.11,ESE,109,2.0,8.0,72,0.00,,,0.00,meteohub,2013-05-27 00:02:00,
2013-05-26 19:07:00,79.7,69.8,30.11,ESE,111,5.0,8.0,72,0.00,,,0.00,meteohub,2013-05-27 00:07:00,
2013-05-26 19:12:00,79.7,69.4,30.11,SE,126,8.0,8.0,71,0.00,,,0.00,meteohub,2013-05-27 00:12:00,
2013-05-26 19:17:00,79.7,69.4,30.11,ESE,121,4.0,9.0,71,0.00,,,0.00,meteohub,2013-05-27 00:17:00,
2013-05-26 19:22:00,79.9,69.3,30.11,ESE,121,8.0,10.0,70,0.00,,,0.00,meteohub,2013-05-27 00:22:00,
2013-05-26 19:27:00,79.9,69.3,30.11,ESE,116,9.0,10.0,70,0.00,,,0.00,meteohub,2013-05-27 00:27:00,
2013-05-26 19:32:00,79.9,69.3,30.11,ESE,119,9.0,10.0,70,0.00,,,0.00,meteohub,2013-05-27 00:32:00,
2013-05-26 19:37:00,79.5,69.3,30.11,SE,128,6.0,10.0,71,0.00,,,0.00,meteohub,2013-05-27 00:37:00,
2013-05-26 19:42:00,79.3,69.4,30.11,ESE,117,8.0,10.0,72,0.00,,,0.00,meteohub,2013-05-27 00:42:00,
2013-05-26 19:47:00,79.3,68.7,30.11,SE,126,8.0,11.0,70,0.00,,,0.00,meteohub,2013-05-27 00:47:00,
2013-05-26 19:52:00,79.3,68.7,30.11,ESE,117,8.0,11.0,70,0.00,,,0.00,meteohub,2013-05-27 00:52:00,
2013-05-26 19:57:00,79.3,68.7,30.11,ESE,123,8.0,11.0,70,0.00,,,0.00,meteohub,2013-05-27 00:57:00,
2013-05-26 20:02:00,79.3,68.7,30.12,ESE,115,7.0,10.0,70,0.00,,,0.00,meteohub,2013-05-27 01:02:00,
2013-05-26 20:07:00,79.3,69.1,30.12,ESE,119,8.0,10.0,71,0.00,,,0.00,meteohub,2013-05-27 01:07:00,
2013-05-26 20:12:00,79.3,68.7,30.12,ESE,120,7.0,10.0,70,0.00,,,0.00,meteohub,2013-05-27 01:12:00,
2013-05-26 20:17:00,79.3,68.7,30.12,SE,125,5.0,9.0,70,0.00,,,0.00,meteohub,2013-05-27 01:17:00,
2013-05-26 20:22:00,79.2,68.5,30.12,SE,124,6.0,9.0,70,0.00,,,0.00,meteohub,2013-05-27 01:22:00,
2013-05-26 20:27:00,79.2,68.5,30.12,ESE,119,7.0,9.0,70,0.00,,,0.00,meteohub,2013-05-27 01:27:00,
2013-05-26 20:32:00,79.2,68.2,30.12,ESE,121,8.0,9.0,69,0.00,,,0.00,meteohub,2013-05-27 01:32:00,
2013-05-26 20:37:00,79.0,68.0,30.12,ESE,119,7.0,9.0,69,0.00,,,0.00,meteohub,2013-05-27 01:37:00,
2013-05-26 20:42:00,79.0,68.4,30.12,ESE,122,5.0,9.0,70,0.00,,,0.00,meteohub,2013-05-27 01:42:00,
2013-05-26 20:47:00,78.8,68.5,30.12,SE,126,6.0,9.0,71,0.00,,,0.00,meteohub,2013-05-27 01:47:00,
2013-05-26 20:52:00,78.6,68.0,30.12,SE,126,7.0,11.0,70,0.00,,,0.00,meteohub,2013-05-27 01:52:00,
2013-05-26 20:57:00,78.6,68.0,30.12,ESE,123,8.0,11.0,70,0.00,,,0.00,meteohub,2013-05-27 01:57:00,
2013-05-26 21:02:00,78.4,68.2,30.12,ESE,123,5.0,11.0,71,0.00,,,0.00,meteohub,2013-05-27 02:02:00,
2013-05-26 21:07:00,78.3,68.0,30.12,ESE,123,8.0,11.0,71,0.00,,,0.00,meteohub,2013-05-27 02:07:00,
2013-05-26 21:12:00,78.1,67.5,30.12,ESE,121,8.0,11.0,70,0.00,,,0.00,meteohub,2013-05-27 02:12:00,
2013-05-26 21:17:00,78.1,67.5,30.12,SE,125,6.0,11.0,70,0.00,,,0.00,meteohub,2013-05-27 02:17:00,
2013-05-26 21:22:00,78.1,67.5,30.12,SE,128,5.0,10.0,70,0.00,,,0.00,meteohub,2013-05-27 02:22:00,
2013-05-26 21:27:00,77.9,67.3,30.12,ESE,119,9.0,11.0,70,0.00,,,0.00,meteohub,2013-05-27 02:27:00,
2013-05-26 21:32:00,77.5,67.5,30.12,ESE,123,9.0,11.0,71,0.00,,,0.00,meteohub,2013-05-27 02:32:00,
2013-05-26 21:37:00,77.4,67.3,30.12,ESE,121,10.0,14.0,71,0.00,,,0.00,meteohub,2013-05-27 02:37:00,
2013-05-26 21:42:00,77.0,67.3,30.12,ESE,117,10.0,14.0,72,0.00,,,0.00,meteohub,2013-05-27 02:42:00,
2013-05-26 21:47:00,76.8,67.1,30.13,ESE,123,10.0,14.0,72,0.00,,,0.00,meteohub,2013-05-27 02:47:00,
2013-05-26 21:52:00,76.5,67.1,30.12,ESE,120,5.0,13.0,73,0.00,,,0.00,meteohub,2013-05-27 02:52:00,
2013-05-26 21:57:00,76.5,67.1,30.13,ESE,120,8.0,12.0,73,0.00,,,0.00,meteohub,2013-05-27 02:57:00,
2013-05-26 22:02:00,76.3,66.9,30.13,ESE,117,9.0,11.0,73,0.00,,,0.00,meteohub,2013-05-27 03:02:00,
2013-05-26 22:07:00,76.3,66.9,30.13,ESE,121,8.0,11.0,73,0.00,,,0.00,meteohub,2013-05-27 03:07:00,
2013-05-26 22:12:00,76.3,66.9,30.13,SE,127,7.0,11.0,73,0.00,,,0.00,meteohub,2013-05-27 03:12:00,
2013-05-26 22:17:00,76.3,66.9,30.13,SE,136,6.0,11.0,73,0.00,,,0.00,meteohub,2013-05-27 03:17:00,
2013-05-26 22:22:00,76.3,67.5,30.14,SE,132,6.0,11.0,74,0.00,,,0.00,meteohub,2013-05-27 03:22:00,
2013-05-26 22:27:00,76.3,67.5,30.14,SE,125,6.0,11.0,74,0.00,,,0.00,meteohub,2013-05-27 03:27:00,
2013-05-26 22:32:00,76.3,67.5,30.14,ESE,123,5.0,11.0,74,0.00,,,0.00,meteohub,2013-05-27 03:32:00,
2013-05-26 22:37:00,75.9,67.1,30.14,SE,136,5.0,10.0,74,0.00,,,0.00,meteohub,2013-05-27 03:37:00,
2013-05-26 22:42:00,75.9,67.1,30.14,ESE,120,8.0,11.0,74,0.00,,,0.00,meteohub,2013-05-27 03:42:00,
2013-05-26 22:47:00,75.7,66.9,30.14,ESE,118,9.0,12.0,74,0.00,,,0.00,meteohub,2013-05-27 03:47:00,
2013-05-26 22:52:00,75.7,66.9,30.14,ESE,117,8.0,12.0,74,0.00,,,0.00,meteohub,2013-05-27 03:52:00,
2013-05-26 22:57:00,75.7,67.3,30.14,ESE,121,10.0,12.0,75,0.00,,,0.00,meteohub,2013-05-27 03:57:00,
2013-05-26 23:01:00,75.7,67.3,30.14,ESE,123,8.0,12.0,75,0.00,,,0.00,meteohub,2013-05-27 04:01:00,
2013-05-26 23:02:00,75.7,66.9,30.14,ESE,116,9.0,12.0,74,0.00,,,0.00,meteohub,2013-05-27 04:02:00,
2013-05-26 23:07:00,75.6,66.7,30.13,ESE,123,8.0,12.0,74,0.00,,,0.00,meteohub,2013-05-27 04:07:00,
2013-05-26 23:12:00,75.4,66.9,30.14,ESE,119,9.0,12.0,75,0.00,,,0.00,meteohub,2013-05-27 04:12:00,
2013-05-26 23:17:00,75.4,67.3,30.14,ESE,123,8.0,12.0,76,0.00,,,0.00,meteohub,2013-05-27 04:17:00,
2013-05-26 23:22:00,75.2,67.1,30.14,ESE,123,9.0,12.0,76,0.00,,,0.00,meteohub,2013-05-27 04:22:00,
2013-05-26 23:27:00,75.0,66.9,30.14,ESE,123,3.0,10.0,76,0.00,,,0.00,meteohub,2013-05-27 04:27:00,
2013-05-26 23:32:00,74.8,67.1,30.14,SE,125,6.0,9.0,77,0.00,,,0.00,meteohub,2013-05-27 04:32:00,
2013-05-26 23:37:00,74.8,67.1,30.14,ESE,122,4.0,9.0,77,0.00,,,0.00,meteohub,2013-05-27 04:37:00,
2013-05-26 23:42:00,75.0,67.3,30.14,SE,136,4.0,9.0,77,0.00,,,0.00,meteohub,2013-05-27 04:42:00,
2013-05-26 23:47:00,75.6,67.1,30.14,South,182,3.0,9.0,75,0.00,,,0.00,meteohub,2013-05-27 04:47:00,
2013-05-26 23:52:00,75.6,67.1,30.13,South,180,3.0,8.0,75,0.00,,,0.00,meteohub,2013-05-27 04:52:00,
2013-05-26 23:57:00,75.4,66.9,30.13,South,178,3.0,9.0,75,0.00,,,0.00,meteohub,2013-05-27 04:57:00,